Time;durP1;ratioP1;P1;durP2;ratioP2;P2;SDS_P1;SDS_P2;PMS_P1;PMS_P2;Temp;Humidity;BMP_temperature;BMP_pressure;BME280_temperature;BME280_humidity;BME280_pressure;Samples;Min_cycle;Max_cycle;Signal;HPM_P1;HPM_P2
2022/01/04 00:00:44;;;;;;;4.40;2.17;;;10.80;71.20;;;;;;5053586;28;20392;-66
2022/01/04 00:03:10;;;;;;;3.67;2.10;;;10.80;71.50;;;;;;5072080;28;20099;-67
2022/01/04 00:05:37;;;;;;;4.22;2.20;;;10.80;71.60;;;;;;5071715;28;20405;-67
2022/01/04 00:08:07;;;;;;;4.13;2.50;;;10.80;71.80;;;;;;5072234;28;20028;-68
2022/01/04 00:10:33;;;;;;;4.90;2.47;;;10.80;72.60;;;;;;5071600;28;20029;-66
2022/01/04 00:15:44;;;;;;;3.17;2.00;;;10.80;72.30;;;;;;5075499;28;20074;-67
2022/01/04 00:18:10;;;;;;;3.28;2.25;;;10.70;72.20;;;;;;5075886;28;20039;-67
2022/01/04 00:20:36;;;;;;;4.82;2.40;;;10.70;72.40;;;;;;5075260;28;20502;-68
2022/01/04 00:23:02;;;;;;;4.40;2.35;;;10.70;72.50;;;;;;5075715;28;20033;-67
2022/01/04 00:25:28;;;;;;;3.17;2.28;;;10.70;72.50;;;;;;5075203;28;20025;-67
2022/01/04 00:27:54;;;;;;;4.30;2.17;;;10.70;72.70;;;;;;5075618;28;20107;-67
2022/01/04 00:30:19;;;;;;;5.13;2.33;;;10.70;72.90;;;;;;5075867;28;20024;-67
2022/01/04 00:32:46;;;;;;;4.15;2.33;;;10.60;72.60;;;;;;5074758;28;20040;-67
2022/01/04 00:35:11;;;;;;;5.95;2.40;;;10.70;72.90;;;;;;5075518;28;20036;-67
2022/01/04 00:37:37;;;;;;;5.43;2.65;;;10.60;72.60;;;;;;5075006;28;20097;-67
2022/01/04 00:40:04;;;;;;;4.40;2.47;;;10.60;73.10;;;;;;5075589;28;20075;-67
2022/01/04 00:42:29;;;;;;;4.43;2.20;;;10.60;72.50;;;;;;5074360;28;20041;-67
2022/01/04 00:44:55;;;;;;;4.18;2.15;;;10.60;72.40;;;;;;5075076;28;20367;-67
2022/01/04 00:47:27;;;;;;;4.15;2.20;;;10.60;71.90;;;;;;5074999;28;20033;-67
2022/01/04 00:49:53;;;;;;;5.05;2.40;;;10.60;72.10;;;;;;5074669;28;20063;-67
2022/01/04 00:52:19;;;;;;;4.15;1.90;;;10.60;71.60;;;;;;5075551;28;20032;-67
2022/01/04 00:54:45;;;;;;;4.90;1.92;;;10.60;71.50;;;;;;5074638;28;20049;-67
2022/01/04 00:57:11;;;;;;;3.30;1.90;;;10.70;71.40;;;;;;5075193;28;20028;-67
2022/01/04 00:59:37;;;;;;;2.83;1.75;;;10.70;71.70;;;;;;5074624;28;20021;-67
2022/01/04 01:02:04;;;;;;;4.05;1.80;;;10.70;71.30;;;;;;5074902;28;20032;-67
2022/01/04 01:04:29;;;;;;;3.15;1.58;;;10.70;70.90;;;;;;5074746;28;20035;-67
2022/01/04 01:06:55;;;;;;;4.55;2.28;;;10.70;70.90;;;;;;5074799;28;20024;-67
2022/01/04 01:09:24;;;;;;;4.40;1.95;;;10.70;71.30;;;;;;5074869;28;20055;-67
2022/01/04 01:11:50;;;;;;;3.38;1.80;;;10.70;71.50;;;;;;5074414;28;20036;-67
2022/01/04 01:14:15;;;;;;;5.60;2.50;;;10.70;71.20;;;;;;5075156;28;20043;-68
2022/01/04 01:16:41;;;;;;;4.57;2.10;;;10.70;71.10;;;;;;5074260;28;20035;-66
2022/01/04 01:19:07;;;;;;;4.72;2.13;;;10.70;70.80;;;;;;5074365;28;20101;-67
2022/01/04 01:21:32;;;;;;;6.13;2.15;;;10.70;70.80;;;;;;5074009;28;20035;-67
2022/01/04 01:23:58;;;;;;;4.55;2.38;;;10.70;70.50;;;;;;5074201;28;20024;-66
2022/01/04 01:26:24;;;;;;;3.92;2.00;;;10.70;70.40;;;;;;5073743;28;20151;-66
2022/01/04 01:28:50;;;;;;;3.28;2.10;;;10.70;70.90;;;;;;5073980;28;20381;-67
2022/01/04 01:31:15;;;;;;;5.38;2.05;;;10.70;70.80;;;;;;5074437;28;20055;-66
2022/01/04 01:33:41;;;;;;;3.42;1.95;;;10.70;70.70;;;;;;5073578;28;20036;-67
2022/01/04 01:36:07;;;;;;;5.65;2.25;;;10.70;70.00;;;;;;5074342;28;20039;-66
2022/01/04 01:38:32;;;;;;;8.27;3.72;;;10.70;70.00;;;;;;5073840;28;20056;-66
2022/01/04 01:40:58;;;;;;;3.97;1.60;;;10.70;69.50;;;;;;5074535;28;20090;-66
2022/01/04 01:43:28;;;;;;;3.33;1.80;;;10.70;69.50;;;;;;5073854;28;20029;-66
2022/01/04 01:45:55;;;;;;;6.70;1.95;;;10.70;69.80;;;;;;5073680;28;20039;-66
2022/01/04 01:48:21;;;;;;;3.50;1.88;;;10.70;70.00;;;;;;5074086;28;20103;-66
2022/01/04 01:50:47;;;;;;;4.93;2.17;;;10.70;69.80;;;;;;5073528;28;20449;-66
2022/01/04 01:53:13;;;;;;;2.97;1.60;;;10.70;70.10;;;;;;5074036;28;20024;-66
2022/01/04 01:55:39;;;;;;;4.43;1.77;;;10.70;69.80;;;;;;5073543;28;20367;-66
2022/01/04 01:58:05;;;;;;;2.92;1.60;;;10.70;70.00;;;;;;5073714;28;20146;-66
2022/01/04 02:00:31;;;;;;;3.58;1.70;;;10.70;69.90;;;;;;5073850;28;20123;-66
2022/01/04 02:02:57;;;;;;;3.83;1.67;;;10.70;69.90;;;;;;5073264;28;20033;-66
2022/01/04 02:05:23;;;;;;;3.10;1.67;;;10.70;69.70;;;;;;5073794;28;20029;-66
2022/01/04 02:07:49;;;;;;;2.38;1.30;;;10.70;69.50;;;;;;5073174;28;20035;-66
2022/01/04 02:10:14;;;;;;;2.97;1.48;;;10.70;69.10;;;;;;5073667;28;20025;-66
2022/01/04 02:12:47;;;;;;;3.15;1.27;;;10.80;69.00;;;;;;5072902;28;20124;-66
2022/01/04 02:15:16;;;;;;;3.35;1.30;;;10.80;68.80;;;;;;5073628;28;20020;-66
2022/01/04 02:17:42;;;;;;;4.00;1.70;;;10.80;68.60;;;;;;5072900;28;20016;-66
2022/01/04 02:20:08;;;;;;;8.85;2.05;;;10.80;68.30;;;;;;5073348;28;20462;-67
2022/01/04 02:22:35;;;;;;;2.97;1.55;;;10.80;68.40;;;;;;5073508;28;20082;-66
2022/01/04 02:25:00;;;;;;;5.20;1.58;;;10.80;68.30;;;;;;5073422;28;20033;-67
2022/01/04 02:27:26;;;;;;;2.75;1.42;;;10.80;68.30;;;;;;5073091;28;20047;-67
2022/01/04 02:29:52;;;;;;;4.43;1.60;;;10.80;68.20;;;;;;5072682;28;20078;-66
2022/01/04 02:32:18;;;;;;;5.47;1.83;;;10.80;68.10;;;;;;5073518;28;20024;-67
2022/01/04 02:34:49;;;;;;;3.30;1.60;;;10.80;68.20;;;;;;5072640;28;20024;-67
2022/01/04 02:37:22;;;;;;;3.10;1.58;;;10.80;68.60;;;;;;5074762;28;20025;-68
2022/01/04 02:39:49;;;;;;;5.10;1.80;;;10.80;68.60;;;;;;5073887;28;20040;-67
2022/01/04 02:42:15;;;;;;;2.85;1.23;;;10.80;68.60;;;;;;5073812;28;20040;-68
2022/01/04 02:44:41;;;;;;;3.45;1.67;;;10.80;69.00;;;;;;5054766;28;20036;-67
2022/01/04 02:47:07;;;;;;;3.92;1.52;;;10.80;69.50;;;;;;5073051;28;20028;-67
2022/01/04 02:49:32;;;;;;;4.10;1.70;;;10.80;69.50;;;;;;5073120;28;20031;-68
2022/01/04 02:51:58;;;;;;;3.67;1.67;;;10.80;69.20;;;;;;5072544;28;20496;-67
2022/01/04 02:54:24;;;;;;;4.00;1.92;;;10.80;69.60;;;;;;5073157;28;20094;-68
2022/01/04 02:56:49;;;;;;;2.72;1.50;;;10.80;69.70;;;;;;5072720;28;20036;-67
2022/01/04 02:59:15;;;;;;;4.70;2.20;;;10.70;69.60;;;;;;5072812;28;20036;-66
2022/01/04 03:01:41;;;;;;;2.72;1.77;;;10.70;69.80;;;;;;5072173;28;20044;-67
2022/01/04 03:04:08;;;;;;;3.85;1.92;;;10.80;69.70;;;;;;5072691;28;20461;-67
2022/01/04 03:06:34;;;;;;;4.40;2.10;;;10.70;69.90;;;;;;5072792;28;20027;-67
2022/01/04 03:09:01;;;;;;;2.63;1.70;;;10.70;69.90;;;;;;5072228;28;20036;-67
2022/01/04 03:11:26;;;;;;;5.35;2.30;;;10.80;70.30;;;;;;5072441;28;20028;-67
2022/01/04 03:13:52;;;;;;;3.17;1.92;;;10.80;70.40;;;;;;5071908;28;20469;-67
2022/01/04 03:16:17;;;;;;;4.28;2.20;;;10.80;70.90;;;;;;5072769;28;20472;-68
2022/01/04 03:19:03;;;;;;;6.47;2.50;;;10.80;71.00;;;;;;5072249;28;20071;-67
2022/01/04 03:21:31;;;;;;;4.85;2.30;;;10.80;71.00;;;;;;5072703;28;20386;-67
2022/01/04 03:23:57;;;;;;;2.85;2.10;;;10.80;71.00;;;;;;5072115;28;20027;-67
2022/01/04 03:26:23;;;;;;;5.13;2.28;;;10.80;70.90;;;;;;5072515;28;20024;-67
2022/01/04 03:28:49;;;;;;;5.07;2.08;;;10.80;71.10;;;;;;5072335;28;20145;-69
2022/01/04 03:31:14;;;;;;;3.97;2.08;;;10.80;71.30;;;;;;5072550;28;20028;-67
2022/01/04 03:33:40;;;;;;;4.50;2.25;;;10.80;71.60;;;;;;5054105;28;20033;-67
2022/01/04 03:36:06;;;;;;;8.02;2.00;;;10.80;71.90;;;;;;5054593;28;20043;-67
2022/01/04 03:38:32;;;;;;;4.47;2.22;;;10.80;72.30;;;;;;5072419;28;20036;-67
2022/01/04 03:40:57;;;;;;;4.28;2.08;;;10.80;73.00;;;;;;5071694;28;20103;-67
2022/01/04 03:43:23;;;;;;;4.40;1.98;;;10.90;73.50;;;;;;5072030;28;20424;-67
2022/01/04 03:45:49;;;;;;;3.72;1.98;;;10.90;73.90;;;;;;5071627;28;20051;-67
2022/01/04 03:48:15;;;;;;;3.17;1.98;;;10.90;74.20;;;;;;5073126;28;20437;-68
2022/01/04 03:50:42;;;;;;;4.72;1.88;;;10.90;74.50;;;;;;5075984;28;20047;-67
2022/01/04 03:53:07;;;;;;;4.68;1.70;;;10.90;74.70;;;;;;5076079;28;20039;-67
2022/01/04 03:55:33;;;;;;;3.30;1.70;;;10.90;74.80;;;;;;5054604;28;20049;-67
2022/01/04 03:57:59;;;;;;;4.97;1.73;;;10.90;74.80;;;;;;5055824;28;20025;-67
2022/01/04 04:00:25;;;;;;;4.75;2.30;;;10.90;74.80;;;;;;5056172;28;20032;-67
2022/01/04 04:02:50;;;;;;;3.45;2.00;;;10.90;75.00;;;;;;5055624;28;20040;-67
2022/01/04 04:05:16;;;;;;;3.20;1.92;;;10.90;74.90;;;;;;5056086;28;20025;-67
2022/01/04 04:07:42;;;;;;;4.47;1.55;;;11.00;74.80;;;;;;5055481;28;20485;-68
2022/01/04 04:10:09;;;;;;;3.25;1.88;;;11.00;74.80;;;;;;5056311;28;20029;-67
2022/01/04 04:12:34;;;;;;;3.03;1.65;;;11.00;74.60;;;;;;5055663;28;20497;-67
2022/01/04 04:15:04;;;;;;;4.45;1.75;;;11.00;75.00;;;;;;5055166;28;20025;-67
2022/01/04 04:17:30;;;;;;;3.42;1.77;;;11.00;74.40;;;;;;5056038;28;20083;-67
2022/01/04 04:19:56;;;;;;;2.97;1.63;;;11.00;74.30;;;;;;5055077;28;20029;-67
2022/01/04 04:22:22;;;;;;;3.00;1.60;;;11.10;74.30;;;;;;5055787;28;20384;-67
2022/01/04 04:24:47;;;;;;;4.07;1.70;;;11.10;74.20;;;;;;5054942;28;20056;-67
2022/01/04 04:27:14;;;;;;;3.13;1.52;;;11.10;74.60;;;;;;5055723;28;20036;-67
2022/01/04 04:29:39;;;;;;;3.67;1.98;;;11.00;74.20;;;;;;5055712;28;20064;-67
2022/01/04 04:32:06;;;;;;;3.50;2.13;;;11.00;73.50;;;;;;5055191;28;20079;-67
2022/01/04 04:34:31;;;;;;;2.95;1.83;;;11.00;72.50;;;;;;5055297;28;20108;-67
2022/01/04 04:36:57;;;;;;;2.60;1.63;;;10.90;71.70;;;;;;5054749;28;20108;-68
2022/01/04 04:39:23;;;;;;;3.38;1.60;;;10.90;70.80;;;;;;5055582;28;20025;-67
2022/01/04 04:41:49;;;;;;;3.47;1.33;;;10.80;71.20;;;;;;5055223;28;20060;-67
2022/01/04 04:44:15;;;;;;;2.22;1.40;;;10.80;70.90;;;;;;5055119;28;20060;-67
2022/01/04 04:46:41;;;;;;;4.03;1.92;;;10.70;70.60;;;;;;5054860;28;20056;-67
2022/01/04 04:49:07;;;;;;;4.15;1.63;;;10.70;70.40;;;;;;5054054;28;20458;-67
2022/01/04 04:51:33;;;;;;;2.63;1.50;;;10.70;71.10;;;;;;5055070;28;20028;-67
2022/01/04 04:53:59;;;;;;;3.72;1.90;;;10.70;70.50;;;;;;5056451;28;20378;-67
2022/01/04 04:56:24;;;;;;;5.65;1.63;;;10.70;70.40;;;;;;5074658;28;20036;-67
2022/01/04 04:58:50;;;;;;;4.15;1.73;;;10.70;70.50;;;;;;5073774;28;20028;-67
2022/01/04 05:01:16;;;;;;;5.18;1.67;;;10.70;70.30;;;;;;5074932;28;20029;-68
2022/01/04 05:03:41;;;;;;;4.07;1.75;;;10.70;70.10;;;;;;5074885;28;20424;-67
2022/01/04 05:06:07;;;;;;;3.40;1.50;;;10.60;70.30;;;;;;5074432;28;20075;-67
2022/01/04 05:08:33;;;;;;;4.53;1.70;;;10.60;70.50;;;;;;5074959;28;20056;-67
2022/01/04 05:10:58;;;;;;;7.25;1.48;;;10.60;70.80;;;;;;5074515;28;20031;-67
2022/01/04 05:13:24;;;;;;;4.18;1.90;;;10.60;70.40;;;;;;5075026;28;20024;-67
2022/01/04 05:15:50;;;;;;;5.82;1.60;;;10.60;71.00;;;;;;5074107;28;20104;-67
2022/01/04 05:18:15;;;;;;;2.78;1.48;;;10.60;70.30;;;;;;5074917;28;20028;-67
2022/01/04 05:20:41;;;;;;;4.20;1.40;;;10.60;69.30;;;;;;5073980;28;20418;-67
2022/01/04 05:23:07;;;;;;;2.80;1.35;;;10.60;69.40;;;;;;5074013;28;20028;-67
2022/01/04 05:25:32;;;;;;;3.42;1.05;;;10.50;69.00;;;;;;5074589;28;20146;-67
2022/01/04 05:28:17;;;;;;;1.83;1.20;;;10.60;69.00;;;;;;5073693;28;20071;-67
2022/01/04 05:30:42;;;;;;;3.08;1.20;;;10.50;68.80;;;;;;5074403;28;20025;-66
2022/01/04 05:33:08;;;;;;;8.38;2.00;;;10.50;69.00;;;;;;5073879;28;20096;-66
2022/01/04 05:35:34;;;;;;;3.17;1.38;;;10.50;69.20;;;;;;5074617;28;20031;-66
2022/01/04 05:37:59;;;;;;;3.03;1.83;;;10.50;69.80;;;;;;5073399;28;20102;-66
2022/01/04 05:40:25;;;;;;;2.38;1.70;;;10.50;70.30;;;;;;5074499;28;20024;-68
2022/01/04 05:42:51;;;;;;;2.75;1.67;;;10.50;71.10;;;;;;5073721;28;20432;-68
2022/01/04 05:45:17;;;;;;;5.97;1.67;;;10.40;71.30;;;;;;5056629;28;20416;-67
2022/01/04 05:47:42;;;;;;;6.07;1.63;;;10.40;72.20;;;;;;5074149;28;20021;-68
2022/01/04 05:50:08;;;;;;;2.88;1.80;;;10.30;73.10;;;;;;5073294;28;20025;-68
2022/01/04 05:52:34;;;;;;;6.10;1.73;;;10.30;73.50;;;;;;5074042;28;20089;-67
2022/01/04 05:55:00;;;;;;;2.85;1.67;;;10.30;73.80;;;;;;5073018;28;20053;-67
2022/01/04 05:57:26;;;;;;;3.63;1.88;;;10.20;73.70;;;;;;5073814;28;20039;-67
2022/01/04 06:00:10;;;;;;;3.97;1.75;;;10.20;74.70;;;;;;5073485;28;20127;-67
2022/01/04 06:02:36;;;;;;;3.30;2.35;;;10.20;75.60;;;;;;5073667;28;20111;-67
2022/01/04 06:05:03;;;;;;;4.72;1.90;;;10.20;75.90;;;;;;5073389;28;20104;-69
2022/01/04 06:07:29;;;;;;;3.15;2.33;;;10.10;76.20;;;;;;5074216;28;20028;-67
2022/01/04 06:09:55;;;;;;;3.08;1.80;;;10.10;76.00;;;;;;5073098;28;20035;-68
2022/01/04 06:15:14;;;;;;;3.80;2.20;;;10.00;76.00;;;;;;5073372;28;20481;-69
2022/01/04 06:17:43;;;;;;;3.03;2.20;;;10.00;76.10;;;;;;5073731;28;20025;-68
2022/01/04 06:20:12;;;;;;;4.38;2.08;;;9.90;75.70;;;;;;5072982;28;20484;-68
2022/01/04 06:22:38;;;;;;;2.92;2.00;;;9.90;76.30;;;;;;5073497;28;20028;-67
2022/01/04 06:25:05;;;;;;;3.88;2.33;;;9.90;76.10;;;;;;5073006;28;20037;-68
2022/01/04 06:27:31;;;;;;;4.85;2.70;;;9.80;75.90;;;;;;5073512;28;20035;-67
2022/01/04 06:29:57;;;;;;;5.00;2.97;;;9.80;76.40;;;;;;5072122;28;20028;-69
2022/01/04 06:32:23;;;;;;;5.28;3.00;;;9.80;76.20;;;;;;5072818;28;20020;-67
2022/01/04 06:34:49;;;;;;;4.18;2.60;;;9.70;76.20;;;;;;5073323;28;20127;-68
2022/01/04 06:37:15;;;;;;;4.68;2.90;;;9.70;76.30;;;;;;5073031;28;20025;-68
2022/01/04 06:39:42;;;;;;;6.32;3.17;;;9.60;76.70;;;;;;5072942;28;20056;-67
2022/01/04 06:42:08;;;;;;;6.38;3.50;;;9.60;77.30;;;;;;5072416;28;20037;-68
2022/01/04 06:44:34;;;;;;;5.80;3.80;;;9.60;77.70;;;;;;5072926;28;20484;-69
2022/01/04 06:47:00;;;;;;;6.47;4.13;;;9.60;78.40;;;;;;5072456;28;20025;-68
2022/01/04 06:49:25;;;;;;;6.00;3.95;;;9.60;78.60;;;;;;5055205;28;20025;-67
2022/01/04 06:51:51;;;;;;;9.07;4.60;;;9.50;78.90;;;;;;5072511;28;20043;-68
2022/01/04 06:54:19;;;;;;;9.85;4.60;;;9.50;79.70;;;;;;5072440;28;20066;-69
2022/01/04 06:56:45;;;;;;;5.97;3.90;;;9.50;80.30;;;;;;5072794;28;20028;-69
2022/01/04 06:59:10;;;;;;;8.30;4.38;;;9.50;80.40;;;;;;5072108;28;20657;-67
2022/01/04 07:01:37;;;;;;;7.03;5.00;;;9.50;80.40;;;;;;5072770;28;20069;-67
2022/01/04 07:04:04;;;;;;;7.82;5.40;;;9.50;80.50;;;;;;5071924;28;20103;-67
2022/01/04 07:06:30;;;;;;;7.60;5.00;;;9.50;80.90;;;;;;5072840;28;20033;-66
2022/01/04 07:08:56;;;;;;;8.93;5.65;;;9.40;81.60;;;;;;5054413;28;20028;-66
2022/01/04 07:11:22;;;;;;;11.27;6.78;;;9.40;82.40;;;;;;5072731;28;20454;-66
2022/01/04 07:13:47;;;;;;;10.45;6.50;;;9.50;82.90;;;;;;5072326;28;20089;-66
2022/01/04 07:16:13;;;;;;;9.48;6.15;;;9.40;83.50;;;;;;5072074;28;20021;-66
2022/01/04 07:18:39;;;;;;;9.45;6.18;;;9.40;84.40;;;;;;5072802;28;20177;-66
2022/01/04 07:21:05;;;;;;;10.48;6.28;;;9.40;85.10;;;;;;5071719;28;20111;-66
2022/01/04 07:23:31;;;;;;;11.15;6.28;;;9.30;85.20;;;;;;5071311;28;20401;-66
2022/01/04 07:25:57;;;;;;;13.27;6.63;;;9.30;86.10;;;;;;5071599;28;20529;-66
2022/01/04 07:28:23;;;;;;;9.57;6.72;;;9.30;86.30;;;;;;5072628;28;20052;-67
2022/01/04 07:30:49;;;;;;;9.60;6.28;;;9.30;86.30;;;;;;5072473;28;20063;-67
2022/01/04 07:33:17;;;;;;;7.82;5.57;;;9.20;86.40;;;;;;5072007;28;20080;-67
2022/01/04 07:35:43;;;;;;;8.90;5.93;;;9.20;85.50;;;;;;5072382;28;20034;-67
2022/01/04 07:38:09;;;;;;;7.75;5.45;;;9.20;85.10;;;;;;5071501;28;20036;-67
2022/01/04 07:40:35;;;;;;;7.15;5.10;;;9.20;84.70;;;;;;5072423;28;20031;-67
2022/01/04 07:43:00;;;;;;;7.20;5.18;;;9.10;84.00;;;;;;5071826;28;20040;-67
2022/01/04 07:45:28;;;;;;;11.07;6.28;;;9.20;83.80;;;;;;5072083;28;20060;-68
2022/01/04 07:47:54;;;;;;;11.82;6.10;;;9.20;84.00;;;;;;5054304;28;20044;-67
2022/01/04 07:50:20;;;;;;;10.88;5.88;;;9.20;83.80;;;;;;5072017;28;20470;-67
2022/01/04 07:52:46;;;;;;;11.20;6.55;;;9.20;83.80;;;;;;5072264;28;20040;-67
2022/01/04 07:55:12;;;;;;;8.82;5.90;;;9.20;83.40;;;;;;5053598;28;20416;-67
2022/01/04 07:57:39;;;;;;;10.32;7.60;;;9.30;82.90;;;;;;5072335;28;20028;-69
2022/01/04 08:00:06;;;;;;;10.07;7.22;;;9.30;82.70;;;;;;5071735;28;20020;-69
2022/01/04 08:02:32;;;;;;;11.90;8.25;;;9.30;83.10;;;;;;5072348;28;20055;-67
2022/01/04 08:04:58;;;;;;;15.13;8.65;;;9.30;82.90;;;;;;5071647;28;20453;-67
2022/01/04 08:07:23;;;;;;;14.43;8.70;;;9.30;82.90;;;;;;5072380;28;20025;-67
2022/01/04 08:09:49;;;;;;;15.13;8.90;;;9.30;83.00;;;;;;5072079;28;20029;-67
2022/01/04 08:12:15;;;;;;;15.70;9.13;;;9.30;82.60;;;;;;5071541;28;20028;-67
2022/01/04 08:14:40;;;;;;;13.70;8.80;;;9.30;82.80;;;;;;5072140;28;20021;-68
2022/01/04 08:17:06;;;;;;;11.70;7.53;;;9.40;83.20;;;;;;5073983;28;20032;-67
2022/01/04 08:19:32;;;;;;;12.45;8.52;;;9.40;83.20;;;;;;5056311;28;20480;-68
2022/01/04 08:21:57;;;;;;;14.30;9.57;;;9.40;83.20;;;;;;5073274;28;20041;-67
2022/01/04 08:24:23;;;;;;;13.18;8.40;;;9.40;83.00;;;;;;5072129;28;20156;-67
2022/01/04 08:26:48;;;;;;;13.82;8.85;;;9.50;83.20;;;;;;5072398;28;20453;-69
2022/01/04 08:29:14;;;;;;;13.15;8.65;;;9.50;83.00;;;;;;5071909;28;20033;-69
2022/01/04 08:31:41;;;;;;;12.68;9.07;;;9.50;83.20;;;;;;5072634;28;20449;-68
2022/01/04 08:34:06;;;;;;;14.00;9.40;;;9.60;83.00;;;;;;5072279;28;20381;-67
2022/01/04 08:36:32;;;;;;;16.40;9.77;;;9.60;82.80;;;;;;5075529;28;20071;-68
2022/01/04 08:38:59;;;;;;;13.60;10.27;;;9.60;82.80;;;;;;5057301;28;20366;-68
2022/01/04 08:41:24;;;;;;;13.45;10.40;;;9.60;83.00;;;;;;5075551;28;20038;-68
2022/01/04 08:43:50;;;;;;;16.15;10.70;;;9.60;82.90;;;;;;5075074;28;20469;-67
2022/01/04 08:46:16;;;;;;;13.32;9.77;;;9.60;83.20;;;;;;5075093;28;20027;-67
2022/01/04 08:48:41;;;;;;;13.82;9.20;;;9.70;83.10;;;;;;5075276;28;20368;-67
2022/01/04 08:51:07;;;;;;;15.45;10.02;;;9.60;83.00;;;;;;5074382;28;20032;-68
2022/01/04 08:53:33;;;;;;;14.30;9.93;;;9.60;82.80;;;;;;5075245;28;20111;-68
2022/01/04 08:56:01;;;;;;;12.23;9.10;;;9.60;83.00;;;;;;5075265;28;20076;-67
2022/01/04 08:58:30;;;;;;;11.73;9.05;;;9.60;83.10;;;;;;5075045;28;20024;-67
2022/01/04 09:00:56;;;;;;;11.77;8.52;;;9.70;83.00;;;;;;5075114;28;20059;-68
2022/01/04 09:03:24;;;;;;;12.05;9.02;;;9.60;83.30;;;;;;5073980;28;20079;-67
2022/01/04 09:05:50;;;;;;;13.70;9.07;;;9.60;83.40;;;;;;5074979;28;20052;-68
2022/01/04 09:08:15;;;;;;;15.18;8.60;;;9.60;83.60;;;;;;5074445;28;20458;-67
2022/01/04 09:10:41;;;;;;;11.95;8.68;;;9.70;83.70;;;;;;5056932;28;20028;-66
2022/01/04 09:13:31;;;;;;;14.18;9.07;;;9.70;83.60;;;;;;5074001;28;20036;-66
2022/01/04 09:18:45;;;;;;;;;;;9.80;83.70;;;;;;5075253;28;20025;-67
2022/01/04 09:21:26;;;;;;;15.18;8.90;;;9.80;84.20;;;;;;5074089;28;19995;-67
2022/01/04 09:23:53;;;;;;;13.27;8.95;;;9.80;85.10;;;;;;5074571;28;20029;-67
2022/01/04 09:26:19;;;;;;;11.48;8.55;;;9.80;85.00;;;;;;5073726;28;20036;-69
2022/01/04 09:28:46;;;;;;;14.65;9.27;;;9.80;85.80;;;;;;5074033;28;20366;-68
2022/01/04 09:31:12;;;;;;;16.77;10.38;;;9.80;85.60;;;;;;5073729;28;20035;-67
2022/01/04 09:33:38;;;;;;;16.00;9.52;;;9.80;85.10;;;;;;5056575;28;20036;-67
2022/01/04 09:36:05;;;;;;;11.65;9.30;;;9.80;85.60;;;;;;5073842;28;20033;-66
2022/01/04 09:38:30;;;;;;;15.55;9.00;;;9.80;85.90;;;;;;5073957;28;20466;-67
2022/01/04 09:40:56;;;;;;;11.80;8.73;;;9.80;85.10;;;;;;5074014;28;20105;-67
2022/01/04 09:43:24;;;;;;;21.65;15.18;;;9.80;85.40;;;;;;5073693;28;20081;-67
2022/01/04 09:45:51;;;;;;;22.20;15.25;;;9.90;87.90;;;;;;5073264;28;20025;-67
2022/01/04 09:48:19;;;;;;;19.27;14.50;;;9.90;89.70;;;;;;5073596;28;20029;-67
2022/01/04 09:50:46;;;;;;;22.58;16.13;;;9.80;89.80;;;;;;5074029;28;20028;-67
2022/01/04 09:53:19;;;;;;;18.63;14.90;;;9.80;90.50;;;;;;5073296;28;20369;-67
2022/01/04 09:55:48;;;;;;;18.95;15.88;;;9.70;91.30;;;;;;5073934;28;20048;-68
2022/01/04 09:58:17;;;;;;;21.65;15.45;;;9.60;91.60;;;;;;5073140;28;20033;-68
2022/01/04 10:00:42;;;;;;;21.17;15.82;;;9.60;92.00;;;;;;5073821;28;20111;-67
2022/01/04 10:03:15;;;;;;;21.25;16.33;;;9.60;92.40;;;;;;5055209;28;20119;-66
2022/01/04 10:05:42;;;;;;;23.60;15.73;;;9.60;92.80;;;;;;5073701;28;20060;-67
2022/01/04 10:08:08;;;;;;;20.10;15.32;;;9.60;93.10;;;;;;5055308;28;20424;-67
2022/01/04 10:10:35;;;;;;;25.42;16.42;;;9.50;93.10;;;;;;5073637;28;20035;-68
2022/01/04 10:13:05;;;;;;;23.60;15.70;;;9.60;92.90;;;;;;5073582;28;20043;-67
2022/01/04 10:15:32;;;;;;;20.02;15.27;;;9.60;92.50;;;;;;5073503;28;20384;-67
2022/01/04 10:18:00;;;;;;;23.48;15.48;;;9.60;92.20;;;;;;5073392;28;20047;-68
2022/01/04 10:20:26;;;;;;;21.25;15.02;;;9.60;91.80;;;;;;5072714;28;20484;-66
2022/01/04 10:22:52;;;;;;;21.52;15.63;;;9.50;91.90;;;;;;5073369;28;20060;-67
2022/01/04 10:25:19;;;;;;;23.52;15.82;;;9.50;92.10;;;;;;5072454;28;20020;-67
2022/01/04 10:27:45;;;;;;;22.17;16.75;;;9.50;92.10;;;;;;5073218;28;20120;-67
2022/01/04 10:30:31;;;;;;;24.00;16.42;;;9.50;92.40;;;;;;5072445;28;20365;-67
2022/01/04 10:33:10;;;;;;;21.33;16.33;;;9.50;92.50;;;;;;5073033;28;20096;-67
2022/01/04 10:35:41;;;;;;;22.20;16.27;;;9.60;92.70;;;;;;5072940;28;20025;-68
2022/01/04 10:38:14;;;;;;;22.30;16.63;;;9.60;92.50;;;;;;5072907;28;20035;-68
2022/01/04 10:40:43;;;;;;;19.30;15.57;;;9.60;92.50;;;;;;5073038;28;20039;-68
2022/01/04 10:43:15;;;;;;;19.65;15.55;;;9.60;92.80;;;;;;5072493;28;20067;-67
2022/01/04 10:45:45;;;;;;;18.95;14.38;;;9.60;92.90;;;;;;5072890;28;20082;-67
2022/01/04 10:48:23;;;;;;;19.58;15.05;;;9.60;93.00;;;;;;5072518;28;20024;-67
2022/01/04 10:50:55;;;;;;;18.83;14.75;;;9.60;93.60;;;;;;5073155;28;20032;-68
2022/01/04 10:53:23;;;;;;;;;;;9.50;93.90;;;;;;5072969;28;20028;-68
2022/01/04 10:55:50;;;;;;;21.00;13.73;;;9.50;94.20;;;;;;5072546;28;19916;-68
2022/01/04 10:58:23;;;;;;;16.55;12.45;;;9.50;94.50;;;;;;5071855;28;20055;-67
2022/01/04 11:01:00;;;;;;;20.13;14.27;;;9.50;94.60;;;;;;5072751;28;20043;-68
2022/01/04 11:03:32;;;;;;;18.65;13.52;;;9.50;94.60;;;;;;5072245;28;20063;-68
2022/01/04 11:06:04;;;;;;;17.77;13.63;;;9.50;94.60;;;;;;5072339;28;20044;-68
2022/01/04 11:08:30;;;;;;;18.35;13.55;;;9.50;94.40;;;;;;5072292;28;20029;-67
2022/01/04 11:10:57;;;;;;;21.73;12.88;;;9.50;94.20;;;;;;5072725;28;20027;-67
2022/01/04 11:13:23;;;;;;;16.52;12.30;;;9.50;94.30;;;;;;5071837;28;20046;-67
2022/01/04 11:15:49;;;;;;;19.63;13.65;;;9.50;94.10;;;;;;5072569;28;20035;-67
2022/01/04 11:18:15;;;;;;;16.00;11.65;;;9.50;93.80;;;;;;5072201;28;20034;-67
2022/01/04 11:20:41;;;;;;;16.58;13.80;;;9.50;93.80;;;;;;5072463;28;20123;-67
2022/01/04 11:23:08;;;;;;;16.33;12.75;;;9.50;93.70;;;;;;5072545;28;20036;-67
2022/01/04 11:25:34;;;;;;;16.17;12.90;;;9.60;93.90;;;;;;5071933;28;20350;-67
2022/01/04 11:28:03;;;;;;;18.08;14.20;;;9.60;93.90;;;;;;5072129;28;20028;-68
2022/01/04 11:30:36;;;;;;;19.30;13.70;;;9.60;93.70;;;;;;5071789;28;20384;-68
2022/01/04 11:33:15;;;;;;;21.50;14.82;;;9.60;93.80;;;;;;5072527;28;20090;-67
2022/01/04 11:35:40;;;;;;;21.60;14.60;;;9.60;94.10;;;;;;5072625;28;20077;-67
2022/01/04 11:38:06;;;;;;;17.55;13.80;;;9.70;94.00;;;;;;5072484;28;20478;-67
2022/01/04 11:40:40;;;;;;;16.90;13.07;;;9.70;94.00;;;;;;5071484;28;20044;-68
2022/01/04 11:43:38;;;;;;;20.50;14.10;;;9.70;94.00;;;;;;5072026;28;20123;-68
2022/01/04 11:46:06;;;;;;;20.35;14.00;;;9.70;94.40;;;;;;5072633;28;20457;-67
2022/01/04 11:48:41;;;;;;;19.75;13.73;;;9.70;94.70;;;;;;5071727;28;20066;-67
2022/01/04 11:51:34;;;;;;;17.25;13.05;;;9.80;95.00;;;;;;5072229;28;20028;-67
2022/01/04 11:54:20;;;;;;;17.27;12.40;;;9.70;94.90;;;;;;5072093;28;20040;-68
2022/01/04 11:56:46;;;;;;;19.60;14.55;;;9.70;94.30;;;;;;5072182;28;20455;-68
2022/01/04 11:59:26;;;;;;;18.92;14.52;;;9.80;93.60;;;;;;5071664;28;20077;-67
2022/01/04 12:01:53;;;;;;;17.65;14.55;;;9.70;92.80;;;;;;5054135;28;20414;-67
2022/01/04 12:05:02;;;;;;;18.92;15.18;;;9.70;93.00;;;;;;5071794;28;20075;-67
2022/01/04 12:07:47;;;;;;;25.75;14.52;;;9.70;93.20;;;;;;5042895;28;20435;-67
2022/01/04 12:10:18;;;;;;;20.02;15.23;;;9.60;93.70;;;;;;5074660;28;20024;-67
2022/01/04 12:13:03;;;;;;;23.52;16.02;;;9.60;94.20;;;;;;5075619;28;20025;-67
2022/01/04 12:15:36;;;;;;;20.73;15.98;;;9.50;94.80;;;;;;5075312;28;20021;-67
2022/01/04 12:18:28;;;;;;;22.05;16.08;;;9.40;95.20;;;;;;5075770;28;20059;-68
2022/01/04 12:20:59;;;;;;;21.35;15.73;;;9.40;95.60;;;;;;5075386;28;20039;-67
2022/01/04 12:23:29;;;;;;;21.65;15.85;;;9.40;96.10;;;;;;5075239;28;20449;-66
2022/01/04 12:26:11;;;;;;;22.30;15.60;;;9.40;96.20;;;;;;5075749;28;20020;-67
2022/01/04 12:28:39;;;;;;;21.63;15.25;;;9.30;96.60;;;;;;5075073;28;20033;-67
2022/01/04 12:31:18;;;;;;;19.77;14.95;;;9.30;96.50;;;;;;5075776;28;20035;-68
2022/01/04 12:33:44;;;;;;;20.35;14.93;;;9.30;96.40;;;;;;5075318;28;20033;-67
2022/01/04 12:36:22;;;;;;;18.42;13.45;;;9.30;96.40;;;;;;5075143;28;20020;-67
2022/01/04 12:38:48;;;;;;;20.20;14.25;;;9.30;96.30;;;;;;5075130;28;20024;-68
2022/01/04 12:41:15;;;;;;;17.00;13.43;;;9.30;96.40;;;;;;5075173;28;20025;-68
2022/01/04 12:43:42;;;;;;;16.25;12.30;;;9.30;96.20;;;;;;5075506;28;20040;-68
2022/01/04 12:46:08;;;;;;;18.92;13.52;;;9.30;96.00;;;;;;5075404;28;20025;-67
2022/01/04 12:49:08;;;;;;;18.02;11.35;;;9.30;95.80;;;;;;5074919;28;20021;-67
2022/01/04 12:51:38;;;;;;;18.23;11.80;;;9.30;95.10;;;;;;5041513;28;20037;-67
2022/01/04 12:54:07;;;;;;;15.65;11.20;;;9.40;94.60;;;;;;5075131;28;20117;-67
2022/01/04 12:56:39;;;;;;;14.85;10.88;;;9.40;93.90;;;;;;5074419;28;20385;-67